Terminal Aerodrome Forecast
Issued by NWS

Home | Current Version | Previous Version | Graphics & Text | Print | Product List | Glossary On
Versions: 1 2 3 4 5 6 7 8 9 10 11 12 13 14 15 16
654
FTUS43 KMPX 291137
TAFAXN
TAF
KAXN 291137Z 2912/3012 14006KT 6SM SHRA BR BKN012 OVC025
      TEMPO 2912/2913 1 1/2SM +TSRA OVC008CB
     FM291300 17011KT P6SM SCT012 BKN025
     FM291500 22009KT P6SM SCT035 BKN250
     FM292000 29007KT P6SM SCT060 BKN090
      TEMPO 2920/2923 5SM -TSRA BKN060CB OVC090
     FM300200 06005KT P6SM FEW060 SCT090=

USA.gov is the U.S. government's official web portal to all federal, state and local government web resources and services.